CheckWX is a tool to help pilots better visualize weather data.  It is not intended as a substitute for an official pre-flight weather briefing.

00:31:16 UTC

KSTJ METAR
Rosecrans Memorial Airport
St Joseph, Missouri, USA
Current

38 mins ago

KSTJ 162353Z 14006KT 10SM CLR 29/22 A3000 RMK AO2 SLP150 T02940222 10328 20294 56005
Observed
Sep-16 @ 23:53 UTC
Wind
  • 140° at 6 KTS
Visibility
10 SM
Flight Rules
VFR
Cloud Levels
  • Clear skies
Temperature
29°C / 84°F
Dewpoint
22°C / 72°F
Heat Index
32°C / 89°F
Humidity
66%
Altimeter
30" Hg
Pressure
1015.92 hPa
Previous

2 hours ago

KSTJ 162253Z 17005KT 10SM CLR 29/22 A3000 RMK AO2 SLP151 T02940222
Observed
Sep-16 @ 22:53 UTC
Wind
  • 170° at 5 KTS
Visibility
10 SM
Flight Rules
VFR
Cloud Levels
  • Clear skies
Temperature
29°C / 84°F
Dewpoint
22°C / 72°F
Heat Index
32°C / 89°F
Humidity
66%
Altimeter
30" Hg
Pressure
1015.92 hPa
Previous

3 hours ago

KSTJ 162153Z 20007KT 10SM CLR 31/22 A3001 RMK AO2 SLP153 T03110217
Observed
Sep-16 @ 21:53 UTC
Wind
  • 200° at 7 KTS
Visibility
10 SM
Flight Rules
VFR
Cloud Levels
  • Clear skies
Temperature
31°C / 88°F
Dewpoint
22°C / 72°F
Heat Index
35°C / 95°F
Humidity
59%
Altimeter
30.01" Hg
Pressure
1016.22 hPa